Thomson Dream — 9HA2381 — position and weather

sailwx.info

Track history (hours):
 
Tides and Currents Weather Stations Pressure Air Temp Water Temp Dewpoint Dewpoint Depression Visibility Wind Speed Wind Dir Waves Ship Positions

Thomson Dream

Last reported at 2016-Aug-29 19:08 UTC. Time now 2016-Aug-30 14:59 UTC.
Position N 37°50' E 025°58'.

Length 243 m; draft 7.6 m.

Type: Ship. MMSI: 248480975.

Date/timePositionNaut miles runAvg speedWind from/ knotsBaromVisibWave heightAir tempDewpointWater temp
2016-Aug-29 19:08N 37°50' E 025°58'1911.6
2016-Aug-29 17:30N 37°41' E 025°38'2010.4
2016-Aug-29 15:33N 37°28' E 025°18'1 0.9
2016-Aug-29 14:33N 37°27' E 025°19'0 0.0
2016-Aug-29 13:30N 37°27' E 025°19'0 0.1
2016-Aug-29 12:33N 37°27' E 025°19'0 0.0
2016-Aug-29 11:33N 37°27' E 025°19'0 0.0
2016-Aug-29 10:33N 37°27' E 025°19'0 0.1
2016-Aug-29 09:33N 37°27' E 025°19'0 0.0
2016-Aug-29 08:27N 37°27' E 025°19'0 0.0
2016-Aug-29 07:33N 37°27' E 025°19'0 0.0
2016-Aug-29 06:33N 37°27' E 025°19'0 0.0
2016-Aug-29 05:33N 37°27' E 025°19'0 0.0
2016-Aug-29 04:33N 37°27' E 025°19'1 0.7
2016-Aug-29 03:29N 37°27' E 025°18'1010.4
2016-Aug-29 02:34N 37°23' E 025°07'1716.6
2016-Aug-29 01:33N 37°14' E 024°50'0 0.2
2016-Aug-29 00:33N 37°14' E 024°50'3 2.5
2016-Aug-28 23:33N 37°12' E 024°52'  
2016-Aug-25 19:21N 41°33' E 018°45'1619.0
2016-Aug-25 18:31N 41°48' E 018°41'1818.8
2016-Aug-25 17:33N 42°06' E 018°37'1515.1
2016-Aug-25 16:33N 42°21' E 018°33'6 5.6
2016-Aug-25 15:33N 42°26' E 018°38'6 6.0
2016-Aug-25 14:33N 42°27' E 018°45'2 1.8
2016-Aug-25 13:28N 42°25' E 018°46'0 0.0
2016-Aug-25 12:28N 42°25' E 018°46'0 0.0
2016-Aug-25 11:28N 42°25' E 018°46'0 0.0
2016-Aug-25 10:28N 42°25' E 018°46'0 0.0
2016-Aug-25 09:28N 42°25' E 018°46'0 0.0
2016-Aug-25 08:28N 42°25' E 018°46'0 0.0
2016-Aug-25 07:22N 42°25' E 018°46'0 0.0
2016-Aug-25 06:19N 42°25' E 018°46'4 2.1
2016-Aug-25 04:33N 42°29' E 018°43'6 6.3
2016-Aug-25 03:33N 42°26' E 018°36'9 9.0
2016-Aug-25 02:34N 42°18' E 018°31'1 0.7
2016-Aug-25 01:33N 42°18' E 018°31'5 4.7
2016-Aug-25 00:33N 42°19' E 018°25'2 1.6
2016-Aug-24 23:33N 42°18' E 018°27'2 1.5
2016-Aug-24 22:33N 42°18' E 018°29'1 1.5
2016-Aug-24 21:33N 42°18' E 018°31'2 1.6
2016-Aug-24 20:33N 42°18' E 018°33'3 3.0
2016-Aug-24 19:33N 42°18' E 018°29'1111.1
2016-Aug-24 18:33N 42°25' E 018°18'1111.2
2016-Aug-24 17:33N 42°32' E 018°05'6 0.5
2016-Aug-24 04:26N 42°37' E 017°60'257 7.6
2016-Aug-22 18:33N 45°04' E 013°09'1818.1
2016-Aug-22 17:33N 45°18' E 012°51'1717.1
2016-Aug-22 16:33N 45°24' E 012°29'7 7.0
2016-Aug-22 15:33N 45°26' E 012°19'0 0.4
2016-Aug-22 14:22N 45°26' E 012°19'0 0.0
2016-Aug-22 13:28N 45°26' E 012°19'0 0.0
2016-Aug-22 12:28N 45°26' E 012°19'0 0.0
2016-Aug-22 11:32N 45°26' E 012°19'0 0.0
2016-Aug-22 10:31N 45°26' E 012°19'0 0.0
2016-Aug-22 09:31N 45°26' E 012°19'0 0.0
2016-Aug-22 08:31N 45°26' E 012°19'0 0.0
2016-Aug-22 07:29N 45°26' E 012°19'0 0.0
2016-Aug-22 06:32N 45°26' E 012°19'0 0.0
2016-Aug-22 05:32N 45°26' E 012°19'3 2.8
2016-Aug-22 04:33N 45°25' E 012°22'10 9.8
2016-Aug-22 03:33N 45°22' E 012°35'7 7.1
2016-Aug-22 02:33N 45°26' E 012°44'2 1.7
2016-Aug-22 01:33N 45°25' E 012°46'6 6.0
2016-Aug-22 00:34N 45°25' E 012°54'19 0.9
2016-Aug-21 03:30N 45°29' E 013°21'1010.7
2016-Aug-21 02:34N 45°21' E 013°12'1111.1
2016-Aug-21 01:33N 45°11' E 013°15'1110.8
2016-Aug-21 00:31N 45°00' E 013°22'1111.3
2016-Aug-20 23:32N 44°50' E 013°29'1111.2
2016-Aug-20 22:33N 44°41' E 013°37'1313.4
2016-Aug-20 21:34N 44°30' E 013°48'1716.8
2016-Aug-20 20:33N 44°16' E 014°01'1716.8
2016-Aug-20 19:33N 44°02' E 014°14'1616.5
2016-Aug-20 18:33N 43°48' E 014°26'1716.5
2016-Aug-20 17:33N 43°34' E 014°39'1716.7
2016-Aug-20 16:33N 43°20' E 014°51'1716.8
2016-Aug-20 15:33N 43°06' E 015°04'3316.6
2016-Aug-20 13:33N 42°42' E 015°35'21816.4
2016-Aug-20 00:16N 40°14' E 019°09'  
Track history (hours):
 
Tides and Currents Weather Stations Pressure Air Temp Water Temp Dewpoint Dewpoint Depression Visibility Wind Speed Wind Dir Waves Ship Positions

Thomson Dream

Last reported at 2016-Aug-29 19:08 UTC. Time now 2016-Aug-30 14:59 UTC.
Position N 37°50' E 025°58'.

Length 243 m; draft 7.6 m.

Type: Ship. MMSI: 248480975.

Date/timePositionNaut miles runAvg speedWind from/ knotsBaromVisibWave heightAir tempDewpointWater temp
2016-Aug-29 19:08N 37°50' E 025°58'1911.6
2016-Aug-29 17:30N 37°41' E 025°38'2010.4
2016-Aug-29 15:33N 37°28' E 025°18'1 0.9
2016-Aug-29 14:33N 37°27' E 025°19'0 0.0
2016-Aug-29 13:30N 37°27' E 025°19'0 0.1
2016-Aug-29 12:33N 37°27' E 025°19'0 0.0
2016-Aug-29 11:33N 37°27' E 025°19'0 0.0
2016-Aug-29 10:33N 37°27' E 025°19'0 0.1
2016-Aug-29 09:33N 37°27' E 025°19'0 0.0
2016-Aug-29 08:27N 37°27' E 025°19'0 0.0
2016-Aug-29 07:33N 37°27' E 025°19'0 0.0
2016-Aug-29 06:33N 37°27' E 025°19'0 0.0
2016-Aug-29 05:33N 37°27' E 025°19'0 0.0
2016-Aug-29 04:33N 37°27' E 025°19'1 0.7
2016-Aug-29 03:29N 37°27' E 025°18'1010.4
2016-Aug-29 02:34N 37°23' E 025°07'1716.6
2016-Aug-29 01:33N 37°14' E 024°50'0 0.2
2016-Aug-29 00:33N 37°14' E 024°50'3 2.5
2016-Aug-28 23:33N 37°12' E 024°52'  
2016-Aug-25 19:21N 41°33' E 018°45'1619.0
2016-Aug-25 18:31N 41°48' E 018°41'1818.8
2016-Aug-25 17:33N 42°06' E 018°37'1515.1
2016-Aug-25 16:33N 42°21' E 018°33'6 5.6
2016-Aug-25 15:33N 42°26' E 018°38'6 6.0
2016-Aug-25 14:33N 42°27' E 018°45'2 1.8
2016-Aug-25 13:28N 42°25' E 018°46'0 0.0
2016-Aug-25 12:28N 42°25' E 018°46'0 0.0
2016-Aug-25 11:28N 42°25' E 018°46'0 0.0
2016-Aug-25 10:28N 42°25' E 018°46'0 0.0
2016-Aug-25 09:28N 42°25' E 018°46'0 0.0
2016-Aug-25 08:28N 42°25' E 018°46'0 0.0
2016-Aug-25 07:22N 42°25' E 018°46'0 0.0
2016-Aug-25 06:19N 42°25' E 018°46'4 2.1
2016-Aug-25 04:33N 42°29' E 018°43'6 6.3
2016-Aug-25 03:33N 42°26' E 018°36'9 9.0
2016-Aug-25 02:34N 42°18' E 018°31'1 0.7
2016-Aug-25 01:33N 42°18' E 018°31'5 4.7
2016-Aug-25 00:33N 42°19' E 018°25'2 1.6
2016-Aug-24 23:33N 42°18' E 018°27'2 1.5
2016-Aug-24 22:33N 42°18' E 018°29'1 1.5
2016-Aug-24 21:33N 42°18' E 018°31'2 1.6
2016-Aug-24 20:33N 42°18' E 018°33'3 3.0
2016-Aug-24 19:33N 42°18' E 018°29'1111.1
2016-Aug-24 18:33N 42°25' E 018°18'1111.2
2016-Aug-24 17:33N 42°32' E 018°05'6 0.5
2016-Aug-24 04:26N 42°37' E 017°60'257 7.6
2016-Aug-22 18:33N 45°04' E 013°09'1818.1
2016-Aug-22 17:33N 45°18' E 012°51'1717.1
2016-Aug-22 16:33N 45°24' E 012°29'7 7.0
2016-Aug-22 15:33N 45°26' E 012°19'0 0.4
2016-Aug-22 14:22N 45°26' E 012°19'0 0.0
2016-Aug-22 13:28N 45°26' E 012°19'0 0.0
2016-Aug-22 12:28N 45°26' E 012°19'0 0.0
2016-Aug-22 11:32N 45°26' E 012°19'0 0.0
2016-Aug-22 10:31N 45°26' E 012°19'0 0.0
2016-Aug-22 09:31N 45°26' E 012°19'0 0.0
2016-Aug-22 08:31N 45°26' E 012°19'0 0.0
2016-Aug-22 07:29N 45°26' E 012°19'0 0.0
2016-Aug-22 06:32N 45°26' E 012°19'0 0.0
2016-Aug-22 05:32N 45°26' E 012°19'3 2.8
2016-Aug-22 04:33N 45°25' E 012°22'10 9.8
2016-Aug-22 03:33N 45°22' E 012°35'7 7.1
2016-Aug-22 02:33N 45°26' E 012°44'2 1.7
2016-Aug-22 01:33N 45°25' E 012°46'6 6.0
2016-Aug-22 00:34N 45°25' E 012°54'19 0.9
2016-Aug-21 03:30N 45°29' E 013°21'1010.7
2016-Aug-21 02:34N 45°21' E 013°12'1111.1
2016-Aug-21 01:33N 45°11' E 013°15'1110.8
2016-Aug-21 00:31N 45°00' E 013°22'1111.3
2016-Aug-20 23:32N 44°50' E 013°29'1111.2
2016-Aug-20 22:33N 44°41' E 013°37'1313.4
2016-Aug-20 21:34N 44°30' E 013°48'1716.8
2016-Aug-20 20:33N 44°16' E 014°01'1716.8
2016-Aug-20 19:33N 44°02' E 014°14'1616.5
2016-Aug-20 18:33N 43°48' E 014°26'1716.5
2016-Aug-20 17:33N 43°34' E 014°39'1716.7
2016-Aug-20 16:33N 43°20' E 014°51'1716.8
2016-Aug-20 15:33N 43°06' E 015°04'3316.6
2016-Aug-20 13:33N 42°42' E 015°35'21816.4
2016-Aug-20 00:16N 40°14' E 019°09'  

Dump ship's entire track history